createdAt,value
2024-01-30T00:02:19.145Z,100443.00
2024-01-30T00:04:45.942Z,100447.00
2024-01-30T00:07:12.952Z,100449.00
2024-01-30T00:09:41.008Z,100465.00
2024-01-30T00:12:08.255Z,100468.00
2024-01-30T00:14:35.166Z,100469.00
2024-01-30T00:17:02.018Z,100470.00
2024-01-30T00:19:29.134Z,100463.00
2024-01-30T00:21:56.169Z,100467.00
2024-01-30T00:24:23.105Z,100467.00
2024-01-30T00:26:49.951Z,100467.00
2024-01-30T00:29:20.804Z,100472.00
2024-01-30T00:31:47.904Z,100466.00
2024-01-30T00:34:14.945Z,100472.00
2024-01-30T00:36:41.929Z,100462.00
2024-01-30T00:39:10.269Z,100456.00
2024-01-30T00:41:37.156Z,100460.00
2024-01-30T00:44:04.177Z,100463.00
2024-01-30T00:46:31.151Z,100459.00
2024-01-30T00:48:58.221Z,100454.00
2024-01-30T00:51:25.606Z,100460.00
2024-01-30T00:53:52.487Z,100452.00
2024-01-30T00:56:20.669Z,100449.00
2024-01-30T00:58:47.881Z,100445.00
2024-01-30T01:01:16.158Z,100452.00
2024-01-30T01:03:44.885Z,100452.00
2024-01-30T01:06:12.126Z,100443.00
2024-01-30T01:08:38.911Z,100443.00
2024-01-30T01:11:05.843Z,100447.00
2024-01-30T01:13:32.807Z,100448.00
2024-01-30T01:15:59.713Z,100450.00
2024-01-30T01:18:26.695Z,100443.00
2024-01-30T01:20:53.857Z,100453.00
2024-01-30T01:23:20.645Z,100441.00
2024-01-30T01:25:47.492Z,100446.00
2024-01-30T01:28:14.593Z,100443.00
2024-01-30T01:30:41.550Z,100445.00
2024-01-30T01:33:08.508Z,100442.00
2024-01-30T01:35:35.327Z,100444.00
2024-01-30T01:38:02.478Z,100448.00
2024-01-30T01:40:29.554Z,100449.00
2024-01-30T01:42:57.362Z,100450.00
2024-01-30T01:45:24.393Z,100441.00
2024-01-30T01:47:53.174Z,100447.00
2024-01-30T01:50:22.236Z,100441.00
2024-01-30T01:52:50.025Z,100447.00
2024-01-30T01:55:19.474Z,100433.00
2024-01-30T01:57:49.541Z,100440.00
2024-01-30T02:00:18.005Z,100436.00
2024-01-30T02:02:46.771Z,100437.00
2024-01-30T02:05:13.933Z,100437.00
2024-01-30T02:07:41.906Z,100445.00
2024-01-30T02:10:11.112Z,100441.00
2024-01-30T02:12:38.173Z,100437.00
2024-01-30T02:15:06.549Z,100445.00
2024-01-30T02:17:33.519Z,100444.00
2024-01-30T02:20:01.223Z,100444.00
2024-01-30T02:22:28.840Z,100445.00
2024-01-30T02:24:55.729Z,100443.00
2024-01-30T02:27:22.527Z,100446.00
2024-01-30T02:29:49.666Z,100439.00
2024-01-30T02:32:16.704Z,100436.00
2024-01-30T02:34:44.773Z,100436.00
2024-01-30T02:37:11.745Z,100435.00
2024-01-30T02:39:38.576Z,100452.00
2024-01-30T02:42:06.341Z,100452.00
2024-01-30T02:44:33.119Z,100439.00
2024-01-30T02:46:59.929Z,100449.00
2024-01-30T02:49:26.909Z,100450.00
2024-01-30T02:51:56.174Z,100446.00
2024-01-30T02:54:23.052Z,100451.00
2024-01-30T02:56:49.893Z,100444.00
2024-01-30T02:59:16.778Z,100449.00
2024-01-30T03:01:45.656Z,100456.00
2024-01-30T03:04:13.296Z,100464.00
2024-01-30T03:06:45.538Z,100445.00
2024-01-30T03:09:12.521Z,100458.00
2024-01-30T03:11:39.438Z,100466.00
2024-01-30T03:14:06.370Z,100456.00
2024-01-30T03:16:33.183Z,100455.00
2024-01-30T03:19:03.096Z,100463.00
2024-01-30T03:21:30.149Z,100460.00
2024-01-30T03:23:56.958Z,100460.00
2024-01-30T03:26:23.875Z,100464.00
2024-01-30T03:28:50.866Z,100462.00
2024-01-30T03:31:17.762Z,100454.00
2024-01-30T03:33:44.989Z,100468.00
2024-01-30T03:36:12.529Z,100466.00
2024-01-30T03:38:41.845Z,100466.00
2024-01-30T03:41:11.912Z,100471.00
2024-01-30T03:43:38.849Z,100465.00
2024-01-30T03:46:06.006Z,100456.00
2024-01-30T03:48:32.954Z,100471.00
2024-01-30T03:50:59.945Z,100476.00
2024-01-30T03:53:26.828Z,100468.00
2024-01-30T03:55:53.684Z,100475.00
2024-01-30T03:58:20.558Z,100476.00
2024-01-30T04:00:47.682Z,100470.00
2024-01-30T04:03:16.673Z,100474.00
2024-01-30T04:05:46.647Z,100472.00
2024-01-30T04:08:13.630Z,100470.00
2024-01-30T04:10:40.909Z,100478.00
2024-01-30T04:13:11.061Z,100470.00
2024-01-30T04:15:39.383Z,100472.00
2024-01-30T04:18:06.892Z,100478.00
2024-01-30T04:20:33.745Z,100472.00
2024-01-30T04:23:00.756Z,100466.00
2024-01-30T04:25:27.765Z,100464.00
2024-01-30T04:27:54.732Z,100470.00
2024-01-30T04:30:21.606Z,100467.00
2024-01-30T04:32:48.427Z,100467.00
2024-01-30T04:35:15.626Z,100458.00
2024-01-30T04:37:42.636Z,100459.00
2024-01-30T04:40:12.150Z,100469.00
2024-01-30T04:42:39.138Z,100472.00
2024-01-30T04:45:07.545Z,100479.00
2024-01-30T04:47:34.594Z,100468.00
2024-01-30T04:50:02.578Z,100464.00
2024-01-30T04:52:29.483Z,100459.00
2024-01-30T04:54:56.323Z,100463.00
2024-01-30T04:57:23.141Z,100469.00
2024-01-30T04:59:49.978Z,100469.00
2024-01-30T05:02:16.860Z,100469.00
2024-01-30T05:04:43.814Z,100475.00
2024-01-30T05:07:10.764Z,100467.00
2024-01-30T05:09:37.623Z,100467.00
2024-01-30T05:12:04.863Z,100462.00
2024-01-30T05:14:31.728Z,100470.00
2024-01-30T05:16:58.613Z,100469.00
2024-01-30T05:19:25.527Z,100462.00
2024-01-30T05:21:52.390Z,100464.00
2024-01-30T05:24:21.192Z,100467.00
2024-01-30T05:26:49.373Z,100468.00
2024-01-30T05:29:16.294Z,100476.00
2024-01-30T05:31:43.118Z,100469.00
2024-01-30T05:34:10.429Z,100474.00
2024-01-30T05:36:37.328Z,100469.00
2024-01-30T05:39:05.725Z,100468.00
2024-01-30T05:41:33.807Z,100470.00
2024-01-30T05:44:00.615Z,100466.00
2024-01-30T05:46:27.445Z,100462.00
2024-01-30T05:48:54.581Z,100459.00
2024-01-30T05:51:21.451Z,100466.00
2024-01-30T05:53:48.272Z,100472.00
2024-01-30T05:56:15.090Z,100469.00
2024-01-30T05:58:42.010Z,100464.00
2024-01-30T06:01:09.822Z,100469.00
2024-01-30T06:03:37.034Z,100470.00
2024-01-30T06:06:04.123Z,100469.00
2024-01-30T06:08:31.035Z,100477.00
2024-01-30T06:11:01.751Z,100476.00
2024-01-30T06:13:33.049Z,100476.00
2024-01-30T06:16:00.133Z,100468.00
2024-01-30T06:18:28.215Z,100467.00
2024-01-30T06:20:55.002Z,100459.00
2024-01-30T06:23:21.777Z,100466.00
2024-01-30T06:25:48.526Z,100463.00
2024-01-30T06:28:15.363Z,100473.00
2024-01-30T06:30:42.378Z,100467.00
2024-01-30T06:33:09.183Z,100471.00
2024-01-30T06:35:37.200Z,100461.00
2024-01-30T06:38:04.109Z,100463.00
2024-01-30T06:40:31.059Z,100477.00
2024-01-30T06:42:57.842Z,100472.00
2024-01-30T06:45:24.630Z,100464.00
2024-01-30T06:47:54.531Z,100473.00
2024-01-30T06:50:56.493Z,100470.00
2024-01-30T06:53:23.283Z,100472.00
2024-01-30T06:55:50.142Z,100468.00
2024-01-30T06:58:17.117Z,100465.00
2024-01-30T07:00:46.831Z,100468.00
2024-01-30T07:03:16.386Z,100473.00
2024-01-30T07:06:46.581Z,100464.00
2024-01-30T07:09:24.427Z,100469.00
2024-01-30T07:11:59.500Z,100479.00
2024-01-30T07:14:28.072Z,100474.00
2024-01-30T07:16:59.633Z,100476.00
2024-01-30T07:19:26.569Z,100481.00
2024-01-30T07:21:53.596Z,100474.00
2024-01-30T07:24:20.446Z,100478.00
2024-01-30T07:26:47.430Z,100477.00
2024-01-30T07:29:14.192Z,100475.00
2024-01-30T07:31:41.552Z,100466.00
2024-01-30T07:34:08.440Z,100468.00
2024-01-30T07:36:35.335Z,100476.00
2024-01-30T07:39:02.101Z,100471.00
2024-01-30T07:41:28.839Z,100476.00
2024-01-30T07:43:55.555Z,100478.00
2024-01-30T07:46:22.487Z,100488.00
2024-01-30T07:48:50.863Z,100489.00
2024-01-30T07:51:18.822Z,100496.00
2024-01-30T07:53:46.113Z,100492.00
2024-01-30T07:56:12.913Z,100495.00
2024-01-30T07:58:39.853Z,100496.00
2024-01-30T08:01:06.695Z,100502.00
2024-01-30T08:03:33.517Z,100492.00
2024-01-30T08:06:00.316Z,100483.00
2024-01-30T08:08:32.486Z,100491.00
2024-01-30T08:10:59.462Z,100480.00
2024-01-30T08:13:26.523Z,100484.00
2024-01-30T08:15:53.417Z,100488.00
2024-01-30T08:18:20.360Z,100497.00
2024-01-30T08:20:47.282Z,100475.00
2024-01-30T08:23:14.463Z,100484.00
2024-01-30T08:25:41.292Z,100476.00
2024-01-30T08:28:10.742Z,100481.00
2024-01-30T08:30:41.042Z,100482.00
2024-01-30T08:33:09.842Z,100476.00
2024-01-30T08:35:36.842Z,100469.00
2024-01-30T08:38:04.448Z,100487.00
2024-01-30T08:40:34.100Z,100478.00
2024-01-30T08:43:01.154Z,100477.00
2024-01-30T08:45:28.036Z,100485.00
2024-01-30T08:47:59.570Z,100485.00
2024-01-30T08:50:26.539Z,100481.00
2024-01-30T08:52:54.670Z,100482.00
2024-01-30T08:55:21.850Z,100484.00
2024-01-30T08:57:51.776Z,100482.00
2024-01-30T09:00:22.618Z,100478.00
2024-01-30T09:02:53.829Z,100477.00
2024-01-30T09:05:20.720Z,100471.00
2024-01-30T09:07:47.808Z,100473.00
2024-01-30T09:10:16.049Z,100481.00
2024-01-30T09:12:44.102Z,100474.00
2024-01-30T09:15:11.210Z,100476.00
2024-01-30T09:17:38.270Z,100491.00
2024-01-30T09:20:06.880Z,100491.00
2024-01-30T09:22:34.327Z,100496.00
2024-01-30T09:25:04.095Z,100484.00
2024-01-30T09:27:35.816Z,100485.00
2024-01-30T09:30:05.380Z,100487.00
2024-01-30T09:32:32.465Z,100485.00
2024-01-30T09:35:01.979Z,100497.00
2024-01-30T09:37:29.206Z,100497.00
2024-01-30T09:40:03.177Z,100500.00
2024-01-30T09:42:45.141Z,100495.00
2024-01-30T09:45:15.512Z,100497.00
2024-01-30T09:47:45.069Z,100493.00
2024-01-30T09:50:18.288Z,100493.00
2024-01-30T09:52:49.261Z,100490.00
2024-01-30T09:55:20.621Z,100489.00
2024-01-30T09:57:47.902Z,100490.00
2024-01-30T10:00:16.908Z,100495.00
2024-01-30T10:02:44.200Z,100489.00
2024-01-30T10:05:16.381Z,100484.00
2024-01-30T10:07:55.361Z,100476.00
2024-01-30T10:10:25.843Z,100491.00
2024-01-30T10:12:53.279Z,100481.00
2024-01-30T10:15:26.802Z,100486.00
2024-01-30T10:17:56.984Z,100491.00
2024-01-30T10:20:34.414Z,100489.00
2024-01-30T10:23:13.033Z,100488.00
2024-01-30T10:25:48.195Z,100487.00
2024-01-30T10:28:35.387Z,100491.00
2024-01-30T10:31:40.789Z,100489.00
2024-01-30T10:34:12.540Z,100481.00
2024-01-30T10:36:53.778Z,100483.00
2024-01-30T10:39:47.928Z,100491.00
2024-01-30T10:43:10.378Z,100490.00
2024-01-30T10:46:50.696Z,100481.00
2024-01-30T10:49:54.680Z,100493.00
2024-01-30T10:52:42.411Z,100488.00
2024-01-30T10:55:33.451Z,100486.00
2024-01-30T10:58:14.716Z,100484.00
2024-01-30T11:04:13.600Z,100475.00
2024-01-30T11:10:07.959Z,100470.00
2024-01-30T11:12:42.124Z,100472.00
2024-01-30T11:15:25.459Z,100476.00
2024-01-30T11:17:56.255Z,100469.00
2024-01-30T11:20:36.788Z,100470.00
2024-01-30T11:23:19.387Z,100464.00
2024-01-30T11:26:12.994Z,100465.00
2024-01-30T11:28:54.939Z,100469.00
2024-01-30T11:31:41.718Z,100476.00
2024-01-30T11:35:13.280Z,100474.00
2024-01-30T11:38:37.986Z,100468.00
2024-01-30T11:42:00.772Z,100476.00
2024-01-30T11:44:31.257Z,100478.00
2024-01-30T11:56:44.572Z,100470.00
2024-01-30T12:18:50.012Z,100467.00
2024-01-30T12:21:24.893Z,100467.00
2024-01-30T12:24:05.506Z,100461.00
2024-01-30T12:29:47.888Z,100448.00
2024-01-30T12:32:34.089Z,100446.00
2024-01-30T12:38:33.265Z,100450.00
2024-01-30T12:41:35.432Z,100451.00
2024-01-30T12:44:02.739Z,100434.00
2024-01-30T12:47:03.452Z,100450.00
2024-01-30T12:50:14.792Z,100442.00
2024-01-30T12:52:54.476Z,100451.00
2024-01-30T12:59:29.389Z,100449.00
2024-01-30T13:03:21.423Z,100461.00
2024-01-30T13:06:27.187Z,100448.00
2024-01-30T13:12:31.320Z,100447.00
2024-01-30T13:15:20.522Z,100447.00
2024-01-30T13:18:46.465Z,100462.00
2024-01-30T13:21:17.334Z,100453.00
2024-01-30T13:24:25.239Z,100448.00
2024-01-30T13:27:35.499Z,100453.00
2024-01-30T13:30:45.950Z,100455.00
2024-01-30T13:33:43.959Z,100457.00
2024-01-30T13:37:18.018Z,100475.00
2024-01-30T13:40:54.314Z,100475.00
2024-01-30T13:44:19.115Z,100472.00
2024-01-30T13:50:21.508Z,100476.00
2024-01-30T13:53:27.927Z,100482.00
2024-01-30T14:00:26.629Z,100476.00
2024-01-30T14:05:58.233Z,100465.00
2024-01-30T14:09:08.658Z,100468.00
2024-01-30T14:13:01.445Z,100455.00
2024-01-30T14:16:03.980Z,100465.00
2024-01-30T14:18:42.630Z,100471.00
2024-01-30T14:21:50.164Z,100464.00
2024-01-30T14:24:17.114Z,100469.00
2024-01-30T14:26:46.460Z,100466.00
2024-01-30T14:29:20.401Z,100470.00
2024-01-30T14:31:56.254Z,100473.00
2024-01-30T14:34:23.436Z,100470.00
2024-01-30T14:36:50.602Z,100476.00
2024-01-30T14:39:17.747Z,100479.00
2024-01-30T14:41:44.997Z,100475.00
2024-01-30T14:44:15.125Z,100477.00
2024-01-30T14:46:45.059Z,100474.00
2024-01-30T14:49:16.717Z,100471.00
2024-01-30T14:51:44.215Z,100462.00
2024-01-30T14:54:12.342Z,100456.00
2024-01-30T14:56:44.869Z,100461.00
2024-01-30T14:59:12.228Z,100472.00
2024-01-30T15:01:44.395Z,100470.00
2024-01-30T15:04:11.517Z,100476.00
2024-01-30T15:06:39.187Z,100479.00
2024-01-30T15:09:06.215Z,100486.00
2024-01-30T15:11:36.641Z,100485.00
2024-01-30T15:14:03.670Z,100483.00
2024-01-30T15:16:31.553Z,100482.00
2024-01-30T15:18:58.801Z,100473.00
2024-01-30T15:21:26.933Z,100474.00
2024-01-30T15:23:54.242Z,100482.00
2024-01-30T15:26:21.180Z,100495.00
2024-01-30T15:28:47.982Z,100498.00
2024-01-30T15:31:15.030Z,100503.00
2024-01-30T15:33:43.471Z,100504.00
2024-01-30T15:36:14.325Z,100505.00
2024-01-30T15:39:54.535Z,100502.00
2024-01-30T15:42:24.926Z,100503.00
2024-01-30T15:44:51.852Z,100512.00
2024-01-30T15:47:18.745Z,100499.00
2024-01-30T15:49:45.692Z,100503.00
2024-01-30T15:52:18.568Z,100519.00
2024-01-30T15:55:22.474Z,100524.00
2024-01-30T16:00:56.499Z,100526.00
2024-01-30T16:04:28.653Z,100520.00
2024-01-30T16:09:57.966Z,100523.00
2024-01-30T16:12:24.859Z,100531.00
2024-01-30T16:14:51.601Z,100529.00
2024-01-30T16:48:27.946Z,100557.00
2024-01-30T16:50:57.763Z,100565.00
2024-01-30T16:53:24.706Z,100564.00
2024-01-30T16:55:53.033Z,100556.00
2024-01-30T16:58:23.075Z,100558.00
2024-01-30T17:00:50.248Z,100567.00
2024-01-30T17:03:17.126Z,100569.00
2024-01-30T17:05:44.012Z,100573.00
2024-01-30T17:08:11.300Z,100570.00
2024-01-30T17:10:38.592Z,100569.00
2024-01-30T17:13:05.614Z,100579.00
2024-01-30T17:15:32.541Z,100589.00
2024-01-30T17:17:59.304Z,100571.00
2024-01-30T17:20:26.225Z,100587.00
2024-01-30T17:22:53.117Z,100577.00
2024-01-30T17:25:20.000Z,100592.00
2024-01-30T17:27:47.076Z,100605.00
2024-01-30T17:30:15.306Z,100596.00
2024-01-30T17:32:42.573Z,100595.00
2024-01-30T17:35:09.902Z,100599.00
2024-01-30T17:37:39.255Z,100596.00
2024-01-30T17:40:08.165Z,100590.00
2024-01-30T17:42:36.524Z,100594.00
2024-01-30T17:45:04.825Z,100581.00
2024-01-30T17:47:31.696Z,100587.00
2024-01-30T17:49:58.896Z,100599.00
2024-01-30T17:52:25.833Z,100588.00
2024-01-30T17:54:56.717Z,100604.00
2024-01-30T17:57:26.409Z,100602.00
2024-01-30T17:59:53.724Z,100599.00
2024-01-30T18:02:23.273Z,100608.00
2024-01-30T18:04:50.274Z,100617.00
2024-01-30T18:07:17.298Z,100614.00
2024-01-30T18:09:44.173Z,100625.00
2024-01-30T18:12:13.684Z,100629.00
2024-01-30T18:14:40.503Z,100625.00
2024-01-30T18:17:07.331Z,100633.00
2024-01-30T18:19:34.184Z,100637.00
2024-01-30T18:22:01.034Z,100638.00
2024-01-30T18:24:28.333Z,100642.00
2024-01-30T18:26:56.020Z,100655.00
2024-01-30T18:29:23.278Z,100655.00
2024-01-30T18:31:50.213Z,100657.00
2024-01-30T18:34:17.101Z,100649.00
2024-01-30T18:36:44.207Z,100648.00
2024-01-30T18:39:11.522Z,100646.00
2024-01-30T18:41:38.512Z,100653.00
2024-01-30T18:44:05.495Z,100644.00
2024-01-30T18:46:32.588Z,100645.00
2024-01-30T18:49:00.035Z,100641.00
2024-01-30T18:51:27.032Z,100639.00
2024-01-30T18:53:53.903Z,100654.00
2024-01-30T18:56:21.788Z,100655.00
2024-01-30T18:58:48.697Z,100655.00
2024-01-30T19:01:15.879Z,100650.00
2024-01-30T19:03:48.359Z,100652.00
2024-01-30T19:06:15.480Z,100654.00
2024-01-30T19:08:42.440Z,100649.00
2024-01-30T19:11:20.244Z,100653.00
2024-01-30T19:13:47.021Z,100650.00
2024-01-30T19:16:13.860Z,100649.00
2024-01-30T19:18:43.472Z,100647.00
2024-01-30T19:21:10.832Z,100651.00
2024-01-30T19:23:37.694Z,100655.00
2024-01-30T19:26:05.046Z,100654.00
2024-01-30T19:28:31.858Z,100652.00
2024-01-30T19:31:01.870Z,100655.00
2024-01-30T19:33:28.978Z,100653.00
2024-01-30T19:35:55.913Z,100655.00
2024-01-30T19:38:24.213Z,100664.00
2024-01-30T19:40:53.238Z,100672.00
2024-01-30T19:43:25.892Z,100673.00
2024-01-30T19:45:55.983Z,100674.00
2024-01-30T19:48:23.033Z,100669.00
2024-01-30T19:50:50.186Z,100679.00
2024-01-30T19:53:19.276Z,100679.00
2024-01-30T19:55:46.305Z,100670.00
2024-01-30T19:58:14.823Z,100670.00
2024-01-30T20:00:41.827Z,100670.00
2024-01-30T20:03:08.885Z,100672.00
2024-01-30T20:05:35.759Z,100666.00
2024-01-30T20:08:02.687Z,100672.00
2024-01-30T20:10:29.687Z,100677.00
2024-01-30T20:12:56.645Z,100674.00
2024-01-30T20:15:23.463Z,100682.00
2024-01-30T20:17:50.400Z,100675.00
2024-01-30T20:20:18.167Z,100688.00
2024-01-30T20:22:48.095Z,100680.00
2024-01-30T20:25:19.128Z,100691.00
2024-01-30T20:27:48.131Z,100687.00
2024-01-30T20:30:15.371Z,100681.00
2024-01-30T20:32:42.292Z,100683.00
2024-01-30T20:35:09.765Z,100690.00
2024-01-30T20:37:38.454Z,100674.00
2024-01-30T20:40:06.498Z,100675.00
2024-01-30T20:42:33.386Z,100678.00
2024-01-30T20:45:04.170Z,100682.00
2024-01-30T20:47:31.688Z,100685.00
2024-01-30T20:49:58.563Z,100687.00
2024-01-30T20:52:25.489Z,100684.00
2024-01-30T20:54:52.637Z,100691.00
2024-01-30T20:57:19.501Z,100680.00
2024-01-30T20:59:46.296Z,100680.00
2024-01-30T21:02:13.324Z,100680.00
2024-01-30T21:04:40.214Z,100673.00
2024-01-30T21:07:08.643Z,100690.00
2024-01-30T21:09:35.412Z,100684.00
2024-01-30T21:12:02.251Z,100683.00
2024-01-30T21:14:29.260Z,100688.00
2024-01-30T21:16:57.423Z,100694.00
2024-01-30T21:19:24.448Z,100698.00
2024-01-30T21:21:51.389Z,100694.00
2024-01-30T21:24:18.497Z,100696.00
2024-01-30T21:26:45.646Z,100697.00
2024-01-30T21:29:12.450Z,100694.00
2024-01-30T21:31:39.958Z,100692.00
2024-01-30T21:34:06.780Z,100688.00
2024-01-30T21:36:33.550Z,100684.00
2024-01-30T21:39:00.695Z,100682.00
2024-01-30T21:41:27.478Z,100681.00
2024-01-30T21:43:54.428Z,100677.00
2024-01-30T21:46:28.292Z,100692.00
2024-01-30T21:48:55.497Z,100685.00
2024-01-30T21:51:22.612Z,100693.00
2024-01-30T21:53:49.519Z,100696.00
2024-01-30T21:56:16.548Z,100682.00
2024-01-30T21:58:43.518Z,100701.00
2024-01-30T22:01:10.475Z,100693.00
2024-01-30T22:03:37.964Z,100695.00
2024-01-30T22:06:05.609Z,100695.00
2024-01-30T22:08:32.352Z,100696.00
2024-01-30T22:10:59.479Z,100695.00
2024-01-30T22:13:26.641Z,100700.00
2024-01-30T22:15:53.418Z,100691.00
2024-01-30T22:18:20.390Z,100694.00
2024-01-30T22:20:47.252Z,100697.00
2024-01-30T22:23:14.510Z,100690.00
2024-01-30T22:25:44.285Z,100701.00
2024-01-30T22:28:11.374Z,100705.00
2024-01-30T22:30:38.190Z,100707.00
2024-01-30T22:33:07.003Z,100711.00
2024-01-30T22:35:34.020Z,100711.00
2024-01-30T22:38:01.064Z,100715.00
2024-01-30T22:40:27.964Z,100719.00
2024-01-30T22:42:55.525Z,100724.00
2024-01-30T22:45:24.702Z,100720.00
2024-01-30T22:47:51.608Z,100723.00
2024-01-30T22:50:18.615Z,100721.00
2024-01-30T22:52:45.529Z,100718.00
2024-01-30T22:55:12.640Z,100722.00
2024-01-30T22:57:39.796Z,100717.00
2024-01-30T23:00:22.506Z,100707.00
2024-01-30T23:02:54.424Z,100705.00
2024-01-30T23:05:21.723Z,100712.00
2024-01-30T23:07:49.599Z,100722.00
2024-01-30T23:10:16.948Z,100714.00
2024-01-30T23:12:45.745Z,100719.00
2024-01-30T23:15:12.891Z,100719.00
2024-01-30T23:17:39.830Z,100706.00
2024-01-30T23:20:08.435Z,100720.00
2024-01-30T23:22:35.415Z,100717.00
2024-01-30T23:25:02.434Z,100718.00
2024-01-30T23:27:29.450Z,100713.00
2024-01-30T23:29:56.531Z,100720.00
2024-01-30T23:32:30.077Z,100744.00
2024-01-30T23:35:02.056Z,100731.00
2024-01-30T23:37:29.090Z,100728.00
2024-01-30T23:39:55.979Z,100731.00
2024-01-30T23:42:23.055Z,100737.00
2024-01-30T23:44:49.881Z,100743.00
2024-01-30T23:47:16.722Z,100729.00
2024-01-30T23:49:43.695Z,100726.00
2024-01-30T23:52:10.552Z,100735.00
2024-01-30T23:54:37.330Z,100725.00
2024-01-30T23:57:04.587Z,100735.00
2024-01-30T23:59:33.953Z,100741.00
